Time,TemperatureF,DewpointF,PressureIn,WindDirection,WindDirectionDegrees,WindSpeedMPH,WindSpeedGustMPH,Humidity,HourlyPrecipIn,Conditions,Clouds,dailyrainin,SoftwareType,DateUTC
2013-09-17 00:01:00,66.0,65.4,29.98,NE,45,0.0,-999.0,98,-99.99,,,0.00,Acu-Link.com,2013-09-17 04:01:00,
2013-09-17 00:16:00,66.0,65.4,29.98,East,90,0.0,-999.0,98,-99.99,,,0.00,Acu-Link.com,2013-09-17 04:16:00,
2013-09-17 00:32:00,65.8,65.2,29.98,NNW,337,0.0,-999.0,98,-99.99,,,0.00,Acu-Link.com,2013-09-17 04:32:00,
2013-09-17 00:47:00,65.5,64.9,29.98,SE,135,0.0,-999.0,98,-99.99,,,0.00,Acu-Link.com,2013-09-17 04:47:00,
2013-09-17 01:02:00,65.5,64.9,29.98,SSE,157,0.0,-999.0,98,-99.99,,,0.00,Acu-Link.com,2013-09-17 05:02:00,
2013-09-17 01:17:00,65.5,64.9,29.98,SSE,157,0.0,-999.0,98,-99.99,,,0.00,Acu-Link.com,2013-09-17 05:17:00,
2013-09-17 01:32:00,65.1,64.5,29.98,NE,45,0.0,-999.0,98,-99.99,,,0.00,Acu-Link.com,2013-09-17 05:32:00,
2013-09-17 01:48:00,64.9,64.3,29.99,SSW,202,0.0,-999.0,98,-99.99,,,0.00,Acu-Link.com,2013-09-17 05:48:00,
2013-09-17 02:03:00,64.8,64.2,29.99,NE,45,0.0,-999.0,98,-99.99,,,0.00,Acu-Link.com,2013-09-17 06:03:00,
2013-09-17 02:18:00,64.6,64.0,29.99,ESE,112,0.0,-999.0,98,-99.99,,,0.00,Acu-Link.com,2013-09-17 06:18:00,
2013-09-17 02:33:00,64.4,63.8,29.99,ENE,67,2.2,-999.0,98,-99.99,,,0.00,Acu-Link.com,2013-09-17 06:33:00,
2013-09-17 02:48:00,64.4,63.8,29.99,North,0,0.0,-999.0,98,-99.99,,,0.00,Acu-Link.com,2013-09-17 06:48:00,
2013-09-17 03:04:00,64.0,63.4,30.00,NW,315,1.1,-999.0,98,-99.99,,,0.00,Acu-Link.com,2013-09-17 07:04:00,
2013-09-17 03:19:00,64.0,63.4,30.00,NNE,22,2.2,-999.0,98,-99.99,,,0.00,Acu-Link.com,2013-09-17 07:19:00,
2013-09-17 03:34:00,63.7,63.1,30.00,North,0,2.2,-999.0,98,-99.99,,,0.00,Acu-Link.com,2013-09-17 07:34:00,
2013-09-17 03:49:00,63.5,62.9,30.00,WSW,247,4.2,-999.0,98,-99.99,,,0.00,Acu-Link.com,2013-09-17 07:49:00,
2013-09-17 04:05:00,63.1,62.5,30.00,East,90,1.7,-999.0,98,-99.99,,,0.00,Acu-Link.com,2013-09-17 08:05:00,
2013-09-17 04:20:00,63.0,62.4,30.00,NNE,22,1.7,-999.0,98,-99.99,,,0.00,Acu-Link.com,2013-09-17 08:20:00,
2013-09-17 04:35:00,62.6,62.0,30.01,West,270,2.7,-999.0,98,-99.99,,,0.00,Acu-Link.com,2013-09-17 08:35:00,
2013-09-17 04:50:00,62.1,61.5,30.01,NNE,22,1.1,-999.0,98,-99.99,,,0.00,Acu-Link.com,2013-09-17 08:50:00,
2013-09-17 05:05:00,61.9,61.3,30.02,East,90,1.7,-999.0,98,-99.99,,,0.00,Acu-Link.com,2013-09-17 09:05:00,
2013-09-17 05:21:00,61.3,60.7,30.02,ENE,67,1.7,-999.0,98,-99.99,,,0.00,Acu-Link.com,2013-09-17 09:21:00,
2013-09-17 05:36:00,61.2,60.6,30.02,SSE,157,1.7,-999.0,98,-99.99,,,0.00,Acu-Link.com,2013-09-17 09:36:00,
2013-09-17 05:51:00,61.2,60.6,30.03,WNW,292,3.2,-999.0,98,-99.99,,,0.00,Acu-Link.com,2013-09-17 09:51:00,
2013-09-17 06:06:00,60.8,60.2,30.03,ENE,67,2.2,-999.0,98,-99.99,,,0.00,Acu-Link.com,2013-09-17 10:06:00,
2013-09-17 06:21:00,60.6,60.0,30.04,ENE,67,1.7,-999.0,98,-99.99,,,0.00,Acu-Link.com,2013-09-17 10:21:00,
2013-09-17 06:37:00,60.4,59.8,30.04,ENE,67,0.0,-999.0,98,-99.99,,,0.00,Acu-Link.com,2013-09-17 10:37:00,
2013-09-17 06:52:00,60.1,59.5,30.04,South,180,2.2,-999.0,98,-99.99,,,0.00,Acu-Link.com,2013-09-17 10:52:00,
2013-09-17 07:07:00,59.9,59.3,30.04,SSE,157,0.0,-999.0,98,-99.99,,,0.00,Acu-Link.com,2013-09-17 11:07:00,
2013-09-17 07:22:00,59.4,58.8,30.05,SE,135,0.0,-999.0,98,-99.99,,,0.00,Acu-Link.com,2013-09-17 11:22:00,
2013-09-17 07:37:00,59.4,58.8,30.06,North,0,0.0,-999.0,98,-99.99,,,0.00,Acu-Link.com,2013-09-17 11:37:00,
2013-09-17 07:53:00,59.5,58.9,30.06,ESE,112,1.7,-999.0,98,-99.99,,,0.00,Acu-Link.com,2013-09-17 11:53:00,
2013-09-17 08:08:00,59.9,59.3,30.07,SE,135,0.0,-999.0,98,-99.99,,,0.00,Acu-Link.com,2013-09-17 12:08:00,
2013-09-17 08:23:00,60.6,60.0,30.07,SSW,202,3.7,-999.0,98,-99.99,,,0.00,Acu-Link.com,2013-09-17 12:23:00,
2013-09-17 08:38:00,61.3,60.7,30.08,SSE,157,2.7,-999.0,98,-99.99,,,0.00,Acu-Link.com,2013-09-17 12:38:00,
2013-09-17 08:54:00,61.7,61.1,30.09,SSE,157,1.1,-999.0,98,-99.99,,,0.00,Acu-Link.com,2013-09-17 12:54:00,
2013-09-17 09:16:00,61.7,61.1,30.10,NNW,337,2.7,-999.0,98,-99.99,,,0.00,Acu-Link.com,2013-09-17 13:16:00,
2013-09-17 09:32:00,62.2,61.6,30.11,East,90,2.7,-999.0,98,-99.99,,,0.00,Acu-Link.com,2013-09-17 13:32:00,
2013-09-17 09:48:00,62.2,61.6,30.11,North,0,3.7,-999.0,98,-99.99,,,0.00,Acu-Link.com,2013-09-17 13:48:00,
2013-09-17 10:03:00,62.2,61.6,30.11,ESE,112,2.7,-999.0,98,-99.99,,,0.00,Acu-Link.com,2013-09-17 14:03:00,
2013-09-17 10:18:00,63.3,62.7,30.11,West,270,3.2,-999.0,98,-99.99,,,0.00,Acu-Link.com,2013-09-17 14:18:00,
2013-09-17 10:33:00,63.9,63.3,30.12,South,180,1.7,-999.0,98,-99.99,,,0.00,Acu-Link.com,2013-09-17 14:33:00,
2013-09-17 10:48:00,64.4,63.8,30.12,ESE,112,4.2,-999.0,98,-99.99,,,0.00,Acu-Link.com,2013-09-17 14:48:00,
2013-09-17 11:04:00,63.0,62.4,30.11,North,0,3.7,-999.0,98,-99.99,,,0.00,Acu-Link.com,2013-09-17 15:04:00,
2013-09-17 11:19:00,63.9,63.3,30.11,East,90,2.7,-999.0,98,-99.99,,,0.00,Acu-Link.com,2013-09-17 15:19:00,
2013-09-17 11:34:00,64.2,63.6,30.11,NNE,22,2.2,-999.0,98,-99.99,,,0.00,Acu-Link.com,2013-09-17 15:34:00,
2013-09-17 11:49:00,64.8,64.2,30.11,NNW,337,2.2,-999.0,98,-99.99,,,0.00,Acu-Link.com,2013-09-17 15:49:00,
2013-09-17 12:05:00,65.1,64.5,30.11,NNE,22,2.7,-999.0,98,-99.99,,,0.00,Acu-Link.com,2013-09-17 16:05:00,
2013-09-17 12:20:00,66.9,66.3,30.11,SSE,157,2.2,-999.0,98,-99.99,,,0.00,Acu-Link.com,2013-09-17 16:20:00,
2013-09-17 12:35:00,67.8,67.2,30.11,East,90,2.7,-999.0,98,-99.99,,,0.00,Acu-Link.com,2013-09-17 16:35:00,
2013-09-17 12:50:00,68.0,67.4,30.10,East,90,2.2,-999.0,98,-99.99,,,0.00,Acu-Link.com,2013-09-17 16:50:00,
2013-09-17 13:05:00,68.9,68.0,30.10,West,270,1.1,-999.0,97,-99.99,,,0.00,Acu-Link.com,2013-09-17 17:05:00,
2013-09-17 13:21:00,68.0,67.4,30.09,NE,45,2.2,-999.0,98,-99.99,,,0.00,Acu-Link.com,2013-09-17 17:21:00,
2013-09-17 13:36:00,69.1,68.5,30.09,ESE,112,0.0,-999.0,98,-99.99,,,0.00,Acu-Link.com,2013-09-17 17:36:00,
2013-09-17 13:51:00,69.1,68.5,30.09,SW,225,1.7,-999.0,98,-99.99,,,0.00,Acu-Link.com,2013-09-17 17:51:00,
2013-09-17 14:06:00,68.0,67.4,30.08,SSW,202,1.1,-999.0,98,-99.99,,,0.00,Acu-Link.com,2013-09-17 18:06:00,
2013-09-17 14:21:00,68.0,67.4,30.08,SSW,202,2.7,-999.0,98,-99.99,,,0.00,Acu-Link.com,2013-09-17 18:21:00,
2013-09-17 14:37:00,67.1,66.5,30.07,NNW,337,4.7,-999.0,98,-99.99,,,0.00,Acu-Link.com,2013-09-17 18:37:00,
2013-09-17 14:52:00,67.3,66.7,30.07,North,0,1.7,-999.0,98,-99.99,,,0.00,Acu-Link.com,2013-09-17 18:52:00,
2013-09-17 15:07:00,68.7,68.1,30.06,SW,225,1.1,-999.0,98,-99.99,,,0.00,Acu-Link.com,2013-09-17 19:07:00,
2013-09-17 15:23:00,67.1,66.5,30.06,West,270,1.7,-999.0,98,-99.99,,,0.00,Acu-Link.com,2013-09-17 19:23:00,
2013-09-17 15:38:00,70.2,69.6,30.06,NE,45,3.2,-999.0,98,-99.99,,,0.00,Acu-Link.com,2013-09-17 19:38:00,
2013-09-17 16:08:00,67.1,66.5,30.05,ESE,112,0.0,-999.0,98,-99.99,,,0.00,Acu-Link.com,2013-09-17 20:08:00,
2013-09-17 16:23:00,67.1,66.5,30.04,NE,45,2.7,-999.0,98,-99.99,,,0.00,Acu-Link.com,2013-09-17 20:23:00,
2013-09-17 16:39:00,67.3,66.7,30.04,WNW,292,3.2,-999.0,98,-99.99,,,0.00,Acu-Link.com,2013-09-17 20:39:00,
2013-09-17 16:54:00,66.7,66.1,30.03,NE,45,1.7,-999.0,98,-99.99,,,0.00,Acu-Link.com,2013-09-17 20:54:00,
2013-09-17 17:09:00,66.4,65.8,30.03,ESE,112,1.7,-999.0,98,-99.99,,,0.00,Acu-Link.com,2013-09-17 21:09:00,
2013-09-17 17:24:00,66.4,65.8,30.03,ESE,112,1.7,-999.0,98,-99.99,,,0.00,Acu-Link.com,2013-09-17 21:24:00,
2013-09-17 17:44:00,67.1,66.5,30.03,NE,45,1.7,-999.0,98,-99.99,,,0.00,Acu-Link.com,2013-09-17 21:44:00,
2013-09-17 17:59:00,66.7,66.1,30.03,South,180,2.7,-999.0,98,-99.99,,,0.00,Acu-Link.com,2013-09-17 21:59:00,
2013-09-17 18:14:00,65.1,64.5,30.03,NW,315,0.0,-999.0,98,-99.99,,,0.00,Acu-Link.com,2013-09-17 22:14:00,
2013-09-17 18:30:00,64.6,64.0,30.04,WSW,247,0.0,-999.0,98,-99.99,,,0.00,Acu-Link.com,2013-09-17 22:30:00,
2013-09-17 18:52:00,64.6,64.0,30.04,ENE,67,0.0,-999.0,98,-99.99,,,0.00,Acu-Link.com,2013-09-17 22:52:00,
2013-09-17 20:26:00,62.1,61.5,30.04,ESE,112,0.0,-999.0,98,-99.99,,,0.00,Acu-Link.com,2013-09-18 00:26:00,
2013-09-17 20:41:00,61.9,61.3,30.05,NE,45,0.0,-999.0,98,-99.99,,,0.00,Acu-Link.com,2013-09-18 00:41:00,
2013-09-17 20:57:00,61.9,61.3,30.06,SSE,157,0.0,-999.0,98,-99.99,,,0.00,Acu-Link.com,2013-09-18 00:57:00,
2013-09-17 21:12:00,61.5,60.9,30.06,NE,45,0.0,-999.0,98,-99.99,,,0.00,Acu-Link.com,2013-09-18 01:12:00,
2013-09-17 21:27:00,61.5,60.9,30.06,East,90,0.0,-999.0,98,-99.99,,,0.00,Acu-Link.com,2013-09-18 01:27:00,
2013-09-17 21:42:00,61.2,60.6,30.07,West,270,0.0,-999.0,98,-99.99,,,0.00,Acu-Link.com,2013-09-18 01:42:00,
2013-09-17 21:57:00,60.6,60.0,30.06,NE,45,0.0,-999.0,98,-99.99,,,0.00,Acu-Link.com,2013-09-18 01:57:00,
2013-09-17 22:13:00,60.4,59.8,30.07,NE,45,0.0,-999.0,98,-99.99,,,0.00,Acu-Link.com,2013-09-18 02:13:00,
2013-09-17 22:28:00,60.4,59.8,30.07,SE,135,0.0,-999.0,98,-99.99,,,0.00,Acu-Link.com,2013-09-18 02:28:00,
2013-09-17 22:43:00,60.1,59.5,30.07,ESE,112,0.0,-999.0,98,-99.99,,,0.00,Acu-Link.com,2013-09-18 02:43:00,
2013-09-17 22:58:00,59.9,59.3,30.08,SSE,157,0.0,-999.0,98,-99.99,,,0.00,Acu-Link.com,2013-09-18 02:58:00,
2013-09-17 23:13:00,59.9,59.3,30.08,West,270,0.0,-999.0,98,-99.99,,,0.00,Acu-Link.com,2013-09-18 03:13:00,
2013-09-17 23:29:00,60.1,59.5,30.07,South,180,0.0,-999.0,98,-99.99,,,0.00,Acu-Link.com,2013-09-18 03:29:00,
2013-09-17 23:44:00,60.1,59.5,30.08,SSE,157,0.0,-999.0,98,-99.99,,,0.00,Acu-Link.com,2013-09-18 03:44:00,
2013-09-17 23:59:00,60.1,59.5,30.08,South,180,0.0,-999.0,98,-99.99,,,0.00,Acu-Link.com,2013-09-18 03:59:00,